sensor_id;sensor_type;location;lat;lon;timestamp;pressure;altitude;pressure_sealevel;temperature;humidity
19843;BME280;10082;51.038;6.992;2023-07-31T00:00:05;15950.28;;;-144.33;100.00
19843;BME280;10082;51.038;6.992;2023-07-31T00:02:34;15649.66;;;-144.33;100.00
19843;BME280;10082;51.038;6.992;2023-07-31T00:05:01;15657.50;;;-144.33;100.00
19843;BME280;10082;51.038;6.992;2023-07-31T00:07:31;15582.84;;;-144.33;100.00
19843;BME280;10082;51.038;6.992;2023-07-31T00:09:58;15115.28;;;-144.33;100.00
19843;BME280;10082;51.038;6.992;2023-07-31T00:12:28;14714.53;;;-144.33;100.00
19843;BME280;10082;51.038;6.992;2023-07-31T00:14:55;14808.84;;;-144.33;100.00
19843;BME280;10082;51.038;6.992;2023-07-31T00:17:25;14635.97;;;-144.33;100.00
19843;BME280;10082;51.038;6.992;2023-07-31T00:19:52;14298.13;;;-144.33;100.00
19843;BME280;10082;51.038;6.992;2023-07-31T00:22:20;14196.00;;;-144.33;100.00
19843;BME280;10082;51.038;6.992;2023-07-31T00:24:52;14042.81;;;-144.33;100.00
19843;BME280;10082;51.038;6.992;2023-07-31T00:27:26;13838.56;;;-144.33;100.00
19843;BME280;10082;51.038;6.992;2023-07-31T00:29:53;13744.31;;;-144.33;100.00
19843;BME280;10082;51.038;6.992;2023-07-31T00:32:21;13516.53;;;-144.33;100.00
19843;BME280;10082;51.038;6.992;2023-07-31T00:34:48;13369.25;;;-144.33;100.00
19843;BME280;10082;51.038;6.992;2023-07-31T00:37:17;13390.84;;;-144.33;100.00
19843;BME280;10082;51.038;6.992;2023-07-31T00:39:44;13084.53;;;-144.33;100.00
19843;BME280;10082;51.038;6.992;2023-07-31T00:42:13;13090.41;;;-144.33;100.00
19843;BME280;10082;51.038;6.992;2023-07-31T00:44:40;13190.56;;;-144.33;100.00
19843;BME280;10082;51.038;6.992;2023-07-31T00:47:08;12831.25;;;-144.33;100.00
19843;BME280;10082;51.038;6.992;2023-07-31T00:49:35;12530.88;;;-144.33;100.00
19843;BME280;10082;51.038;6.992;2023-07-31T00:52:03;12493.56;;;-144.33;100.00
19843;BME280;10082;51.038;6.992;2023-07-31T00:54:31;12212.84;;;-144.33;100.00
19843;BME280;10082;51.038;6.992;2023-07-31T00:56:59;12420.94;;;-144.33;100.00
19843;BME280;10082;51.038;6.992;2023-07-31T00:59:32;12534.81;;;-144.33;100.00
19843;BME280;10082;51.038;6.992;2023-07-31T01:02:00;12142.19;;;-144.33;100.00
19843;BME280;10082;51.038;6.992;2023-07-31T01:04:28;11941.97;;;-144.33;100.00
19843;BME280;10082;51.038;6.992;2023-07-31T01:06:59;11708.38;;;-144.33;100.00
19843;BME280;10082;51.038;6.992;2023-07-31T01:09:34;11947.84;;;-144.33;100.00
19843;BME280;10082;51.038;6.992;2023-07-31T01:12:04;11404.19;;;-144.33;100.00
19843;BME280;10082;51.038;6.992;2023-07-31T01:14:35;11164.75;;;-144.33;100.00
19843;BME280;10082;51.038;6.992;2023-07-31T01:17:02;11243.25;;;-144.33;100.00
19843;BME280;10082;51.038;6.992;2023-07-31T01:19:30;10426.91;;;-144.33;100.00
19843;BME280;10082;51.038;6.992;2023-07-31T01:22:25;10158.13;;;-144.33;100.00
19843;BME280;10082;51.038;6.992;2023-07-31T01:25:08;10010.97;;;-144.33;100.00
19843;BME280;10082;51.038;6.992;2023-07-31T01:27:53;9192.94;;;-144.33;100.00
19843;BME280;10082;51.038;6.992;2023-07-31T01:30:25;9247.88;;;-144.33;100.00
19843;BME280;10082;51.038;6.992;2023-07-31T01:32:56;8000.53;;;-144.33;100.00
19843;BME280;10082;51.038;6.992;2023-07-31T01:35:24;7192.75;;;-144.33;100.00
19843;BME280;10082;51.038;6.992;2023-07-31T01:37:52;6641.91;;;-144.33;100.00
19843;BME280;10082;51.038;6.992;2023-07-31T01:40:20;5893.16;;;-144.33;100.00
19843;BME280;10082;51.038;6.992;2023-07-31T01:42:49;4668.47;;;-144.33;100.00
19843;BME280;10082;51.038;6.992;2023-07-31T01:45:16;3747.78;;;-144.33;100.00
19843;BME280;10082;51.038;6.992;2023-07-31T01:47:43;2811.63;;;-144.33;100.00
19843;BME280;10082;51.038;6.992;2023-07-31T01:50:11;1466.53;;;-144.33;100.00
19843;BME280;10082;51.038;6.992;2023-07-31T01:52:39;542.66;;;-144.33;100.00
19843;BME280;10082;51.038;6.992;2023-07-31T01:55:08;-277.28;;;-144.33;100.00
19843;BME280;10082;51.038;6.992;2023-07-31T01:57:36;-1089.22;;;-144.33;100.00
19843;BME280;10082;51.038;6.992;2023-07-31T02:00:06;-1666.28;;;-144.33;100.00
19843;BME280;10082;51.038;6.992;2023-07-31T02:02:40;-2730.19;;;-144.33;100.00
19843;BME280;10082;51.038;6.992;2023-07-31T02:05:07;-3606.13;;;-144.33;100.00
19843;BME280;10082;51.038;6.992;2023-07-31T02:07:34;-3899.34;;;-144.33;100.00
19843;BME280;10082;51.038;6.992;2023-07-31T02:10:05;-4413.44;;;-144.33;100.00
19843;BME280;10082;51.038;6.992;2023-07-31T02:12:34;-4604.97;;;-144.33;100.00
19843;BME280;10082;51.038;6.992;2023-07-31T02:15:02;-5511.75;;;-144.33;100.00
19843;BME280;10082;51.038;6.992;2023-07-31T02:17:31;-6199.50;;;-144.33;100.00
19843;BME280;10082;51.038;6.992;2023-07-31T02:20:00;-6703.53;;;-144.33;100.00
19843;BME280;10082;51.038;6.992;2023-07-31T02:22:27;-6949.66;;;-144.33;100.00
19843;BME280;10082;51.038;6.992;2023-07-31T02:24:55;-7275.84;;;-144.33;100.00
19843;BME280;10082;51.038;6.992;2023-07-31T02:27:23;-7594.19;;;-144.33;100.00
19843;BME280;10082;51.038;6.992;2023-07-31T02:29:53;-7553.16;;;-144.33;100.00
19843;BME280;10082;51.038;6.992;2023-07-31T02:32:24;-7697.69;;;-144.33;100.00
19843;BME280;10082;51.038;6.992;2023-07-31T02:34:53;-7738.69;;;-144.33;100.00
19843;BME280;10082;51.038;6.992;2023-07-31T02:37:21;-8002.31;;;-144.33;100.00
19843;BME280;10082;51.038;6.992;2023-07-31T02:39:48;-8053.09;;;-144.33;100.00
19843;BME280;10082;51.038;6.992;2023-07-31T02:42:16;-8277.66;;;-144.33;100.00
19843;BME280;10082;51.038;6.992;2023-07-31T02:44:43;-8096.06;;;-144.33;100.00
19843;BME280;10082;51.038;6.992;2023-07-31T02:47:10;-8016.00;;;-144.33;100.00
19843;BME280;10082;51.038;6.992;2023-07-31T02:49:39;-7982.81;;;-144.33;100.00
19843;BME280;10082;51.038;6.992;2023-07-31T02:52:08;-8098.00;;;-144.33;100.00
19843;BME280;10082;51.038;6.992;2023-07-31T02:54:36;-8029.66;;;-144.33;100.00
19843;BME280;10082;51.038;6.992;2023-07-31T02:57:04;-7932.03;;;-144.33;100.00
19843;BME280;10082;51.038;6.992;2023-07-31T02:59:31;-7842.19;;;-144.33;100.00
19843;BME280;10082;51.038;6.992;2023-07-31T03:01:58;-7871.50;;;-144.33;100.00
19843;BME280;10082;51.038;6.992;2023-07-31T03:04:25;-7801.19;;;-144.33;100.00
19843;BME280;10082;51.038;6.992;2023-07-31T03:06:52;-7810.94;;;-144.33;100.00
19843;BME280;10082;51.038;6.992;2023-07-31T03:09:21;-7730.88;;;-144.33;100.00
19843;BME280;10082;51.038;6.992;2023-07-31T03:11:49;-7705.50;;;-144.33;100.00
19843;BME280;10082;51.038;6.992;2023-07-31T03:14:17;-7738.69;;;-144.33;100.00
19843;BME280;10082;51.038;6.992;2023-07-31T03:16:44;-7851.97;;;-144.33;100.00
19843;BME280;10082;51.038;6.992;2023-07-31T03:19:15;-7629.34;;;-144.33;100.00
19843;BME280;10082;51.038;6.992;2023-07-31T03:21:43;-7566.84;;;-144.33;100.00
19843;BME280;10082;51.038;6.992;2023-07-31T03:24:10;-7773.84;;;-144.33;100.00
19843;BME280;10082;51.038;6.992;2023-07-31T03:26:42;-7598.09;;;-144.33;100.00
19843;BME280;10082;51.038;6.992;2023-07-31T03:29:10;-7689.88;;;-144.33;100.00
19843;BME280;10082;51.038;6.992;2023-07-31T03:31:37;-7609.81;;;-144.33;100.00
19843;BME280;10082;51.038;6.992;2023-07-31T03:34:04;-7537.53;;;-144.33;100.00
19843;BME280;10082;51.038;6.992;2023-07-31T03:36:32;-7461.38;;;-144.33;100.00
19843;BME280;10082;51.038;6.992;2023-07-31T03:39:00;-7457.47;;;-144.33;100.00
19843;BME280;10082;51.038;6.992;2023-07-31T03:41:27;-7221.16;;;-144.33;100.00
19843;BME280;10082;51.038;6.992;2023-07-31T03:43:57;-7303.19;;;-144.33;100.00
19843;BME280;10082;51.038;6.992;2023-07-31T03:46:24;-7100.06;;;-144.33;100.00
19843;BME280;10082;51.038;6.992;2023-07-31T03:48:57;-7012.16;;;-144.33;100.00
19843;BME280;10082;51.038;6.992;2023-07-31T03:51:25;-6969.19;;;-144.33;100.00
19843;BME280;10082;51.038;6.992;2023-07-31T03:53:52;-7219.19;;;-144.33;100.00
19843;BME280;10082;51.038;6.992;2023-07-31T03:56:20;-7346.16;;;-144.33;100.00
19843;BME280;10082;51.038;6.992;2023-07-31T03:58:47;-7234.81;;;-144.33;100.00
19843;BME280;10082;51.038;6.992;2023-07-31T04:01:15;-7439.91;;;-144.33;100.00
19843;BME280;10082;51.038;6.992;2023-07-31T04:03:43;-7375.44;;;-144.33;100.00
19843;BME280;10082;51.038;6.992;2023-07-31T04:06:11;-7144.97;;;-144.33;100.00
19843;BME280;10082;51.038;6.992;2023-07-31T04:08:38;-7353.97;;;-144.33;100.00
19843;BME280;10082;51.038;6.992;2023-07-31T04:11:05;-7336.38;;;-144.33;100.00
19843;BME280;10082;51.038;6.992;2023-07-31T04:13:33;-7437.94;;;-144.33;100.00
19843;BME280;10082;51.038;6.992;2023-07-31T04:16:00;-7641.06;;;-144.33;100.00
19843;BME280;10082;51.038;6.992;2023-07-31T04:18:28;-7518.00;;;-144.33;100.00
19843;BME280;10082;51.038;6.992;2023-07-31T04:20:57;-7529.72;;;-144.33;100.00
19843;BME280;10082;51.038;6.992;2023-07-31T04:23:30;-7484.81;;;-144.33;100.00
19843;BME280;10082;51.038;6.992;2023-07-31T04:26:00;-7603.94;;;-144.33;100.00
19843;BME280;10082;51.038;6.992;2023-07-31T04:28:27;-7502.38;;;-144.33;100.00
19843;BME280;10082;51.038;6.992;2023-07-31T04:30:58;-7344.19;;;-144.33;100.00
19843;BME280;10082;51.038;6.992;2023-07-31T04:33:25;-7457.47;;;-144.33;100.00
19843;BME280;10082;51.038;6.992;2023-07-31T04:35:54;-7348.09;;;-144.33;100.00
19843;BME280;10082;51.038;6.992;2023-07-31T04:38:21;-7172.31;;;-144.33;100.00
19843;BME280;10082;51.038;6.992;2023-07-31T04:40:49;-6881.28;;;-144.33;100.00
19843;BME280;10082;51.038;6.992;2023-07-31T04:43:16;-6846.13;;;-144.33;100.00
19843;BME280;10082;51.038;6.992;2023-07-31T04:45:45;-6301.09;;;-144.33;100.00
19843;BME280;10082;51.038;6.992;2023-07-31T04:48:14;-5970.94;;;-144.33;100.00
19843;BME280;10082;51.038;6.992;2023-07-31T04:50:45;-6283.53;;;-144.33;100.00
19843;BME280;10082;51.038;6.992;2023-07-31T04:56:02;-5890.81;;;-144.33;100.00
19843;BME280;10082;51.038;6.992;2023-07-31T04:58:30;-5664.16;;;-144.33;100.00
19843;BME280;10082;51.038;6.992;2023-07-31T05:00:57;-5416.00;;;-144.33;100.00
19843;BME280;10082;51.038;6.992;2023-07-31T05:03:25;-5511.75;;;-144.33;100.00
19843;BME280;10082;51.038;6.992;2023-07-31T05:05:52;-5523.47;;;-144.33;100.00
19843;BME280;10082;51.038;6.992;2023-07-31T05:08:20;-6287.44;;;-144.33;100.00
19843;BME280;10082;51.038;6.992;2023-07-31T05:10:47;-6564.84;;;-144.33;100.00
19843;BME280;10082;51.038;6.992;2023-07-31T05:13:17;-6490.59;;;-144.33;100.00
19843;BME280;10082;51.038;6.992;2023-07-31T05:15:51;-6486.69;;;-144.33;100.00
19843;BME280;10082;51.038;6.992;2023-07-31T05:18:19;-6678.13;;;-144.33;100.00
19843;BME280;10082;51.038;6.992;2023-07-31T05:20:47;-6473.00;;;-144.33;100.00
19843;BME280;10082;51.038;6.992;2023-07-31T05:23:18;-5949.44;;;-144.33;100.00
19843;BME280;10082;51.038;6.992;2023-07-31T05:25:45;-5199.09;;;-144.33;100.00
19843;BME280;10082;51.038;6.992;2023-07-31T05:28:13;-4509.22;;;-144.33;100.00
19843;BME280;10082;51.038;6.992;2023-07-31T05:30:43;-4147.59;;;-144.33;100.00
19843;BME280;10082;51.038;6.992;2023-07-31T05:33:13;-3254.19;;;-144.33;100.00
19843;BME280;10082;51.038;6.992;2023-07-31T05:35:41;-2472.06;;;-144.33;100.00
19843;BME280;10082;51.038;6.992;2023-07-31T05:38:13;-1318.09;;;-144.33;100.00
19843;BME280;10082;51.038;6.992;2023-07-31T05:40:42;-635.34;;;-144.33;100.00
19843;BME280;10082;51.038;6.992;2023-07-31T05:43:09;-91.38;;;-144.33;100.00
19843;BME280;10082;51.038;6.992;2023-07-31T05:45:37;-261.63;;;-144.33;100.00
19843;BME280;10082;51.038;6.992;2023-07-31T05:48:07;397.84;;;-144.33;100.00
19843;BME280;10082;51.038;6.992;2023-07-31T05:50:34;452.63;;;-144.33;100.00
19843;BME280;10082;51.038;6.992;2023-07-31T05:53:03;503.53;;;-144.33;100.00
19843;BME280;10082;51.038;6.992;2023-07-31T05:55:34;675.75;;;-144.33;100.00
19843;BME280;10082;51.038;6.992;2023-07-31T05:58:01;714.91;;;-144.33;100.00
19843;BME280;10082;51.038;6.992;2023-07-31T06:00:29;391.97;;;-144.33;100.00
19843;BME280;10082;51.038;6.992;2023-07-31T06:02:59;274.56;;;-144.33;100.00
19843;BME280;10082;51.038;6.992;2023-07-31T06:05:29;341.09;;;-144.33;100.00
19843;BME280;10082;51.038;6.992;2023-07-31T06:07:57;-36.59;;;-144.33;100.00
19843;BME280;10082;51.038;6.992;2023-07-31T06:10:24;-504.25;;;-144.33;100.00
19843;BME280;10082;51.038;6.992;2023-07-31T06:12:52;-909.22;;;-144.33;100.00
19843;BME280;10082;51.038;6.992;2023-07-31T06:15:19;-1924.44;;;-144.33;100.00
19843;BME280;10082;51.038;6.992;2023-07-31T06:17:47;-2225.63;;;-144.33;100.00
19843;BME280;10082;51.038;6.992;2023-07-31T06:20:14;-3602.19;;;-144.33;100.00
19843;BME280;10082;51.038;6.992;2023-07-31T06:22:50;-4630.38;;;-144.33;100.00
19843;BME280;10082;51.038;6.992;2023-07-31T06:25:20;-5136.56;;;-144.33;100.00
19843;BME280;10082;51.038;6.992;2023-07-31T06:27:48;-5586.00;;;-144.33;100.00
19843;BME280;10082;51.038;6.992;2023-07-31T06:30:16;-4311.81;;;-144.33;100.00
19843;BME280;10082;51.038;6.992;2023-07-31T06:32:46;-3494.69;;;-144.33;100.00
19843;BME280;10082;51.038;6.992;2023-07-31T06:35:15;-3091.91;;;-144.33;100.00
19843;BME280;10082;51.038;6.992;2023-07-31T06:37:42;-1969.44;;;-144.33;100.00
19843;BME280;10082;51.038;6.992;2023-07-31T06:40:11;-1026.63;;;-144.33;100.00
19843;BME280;10082;51.038;6.992;2023-07-31T06:42:38;-341.84;;;-144.33;100.00
19843;BME280;10082;51.038;6.992;2023-07-31T06:45:07;509.41;;;-144.33;100.00
19843;BME280;10082;51.038;6.992;2023-07-31T06:47:35;791.22;;;-144.33;100.00
19843;BME280;10082;51.038;6.992;2023-07-31T06:50:02;1331.47;;;-144.33;100.00
19843;BME280;10082;51.038;6.992;2023-07-31T06:52:29;2089.09;;;-144.33;100.00
19843;BME280;10082;51.038;6.992;2023-07-31T06:55:04;2656.91;;;-144.33;100.00
19843;BME280;10082;51.038;6.992;2023-07-31T06:57:33;3452.00;;;-144.33;100.00
19843;BME280;10082;51.038;6.992;2023-07-31T07:00:00;3857.47;;;-144.33;100.00
19843;BME280;10082;51.038;6.992;2023-07-31T07:02:28;4464.72;;;-144.33;100.00
19843;BME280;10082;51.038;6.992;2023-07-31T07:04:54;3698.81;;;-144.33;100.00
19843;BME280;10082;51.038;6.992;2023-07-31T07:07:23;3655.72;;;-144.33;100.00
19843;BME280;10082;51.038;6.992;2023-07-31T07:09:50;4215.94;;;-144.33;100.00
19843;BME280;10082;51.038;6.992;2023-07-31T07:12:17;4016.13;;;-144.33;100.00
19843;BME280;10082;51.038;6.992;2023-07-31T07:14:46;4057.25;;;-144.33;100.00
19843;BME280;10082;51.038;6.992;2023-07-31T07:17:14;3015.28;;;-144.33;100.00
19843;BME280;10082;51.038;6.992;2023-07-31T07:19:41;2968.28;;;-144.33;100.00
19843;BME280;10082;51.038;6.992;2023-07-31T07:22:08;2762.66;;;-144.33;100.00
19843;BME280;10082;51.038;6.992;2023-07-31T07:24:35;2758.75;;;-144.33;100.00
19843;BME280;10082;51.038;6.992;2023-07-31T07:27:03;2398.44;;;-144.33;100.00
19843;BME280;10082;51.038;6.992;2023-07-31T07:29:30;2194.81;;;-144.33;100.00
19843;BME280;10082;51.038;6.992;2023-07-31T07:31:59;2208.53;;;-144.33;100.00
19843;BME280;10082;51.038;6.992;2023-07-31T07:34:27;2764.63;;;-144.33;100.00
19843;BME280;10082;51.038;6.992;2023-07-31T07:36:54;2032.31;;;-144.33;100.00
19843;BME280;10082;51.038;6.992;2023-07-31T07:39:21;1758.22;;;-144.33;100.00
19843;BME280;10082;51.038;6.992;2023-07-31T07:41:49;2292.72;;;-144.33;100.00
19843;BME280;10082;51.038;6.992;2023-07-31T07:44:16;1760.19;;;-144.33;100.00
19843;BME280;10082;51.038;6.992;2023-07-31T07:46:44;1869.81;;;-144.33;100.00
19843;BME280;10082;51.038;6.992;2023-07-31T07:49:12;2921.28;;;-144.33;100.00
19843;BME280;10082;51.038;6.992;2023-07-31T07:51:43;3841.78;;;-144.33;100.00
19843;BME280;10082;51.038;6.992;2023-07-31T07:54:10;4266.88;;;-144.33;100.00
19843;BME280;10082;51.038;6.992;2023-07-31T07:56:37;5021.16;;;-144.33;100.00
19843;BME280;10082;51.038;6.992;2023-07-31T07:59:04;5754.03;;;-144.33;100.00
19843;BME280;10082;51.038;6.992;2023-07-31T08:01:31;6559.56;;;-144.33;100.00
19843;BME280;10082;51.038;6.992;2023-07-31T08:03:59;6649.72;;;-144.33;100.00
19843;BME280;10082;51.038;6.992;2023-07-31T08:06:28;7543.69;;;-144.33;100.00
19843;BME280;10082;51.038;6.992;2023-07-31T08:08:56;7947.59;;;-144.33;100.00
19843;BME280;10082;51.038;6.992;2023-07-31T08:11:24;8273.13;;;-144.33;100.00
19843;BME280;10082;51.038;6.992;2023-07-31T08:13:51;8865.41;;;-144.33;100.00
19843;BME280;10082;51.038;6.992;2023-07-31T08:16:18;9102.72;;;-144.33;100.00
19843;BME280;10082;51.038;6.992;2023-07-31T08:18:47;9920.72;;;-144.33;100.00
19843;BME280;10082;51.038;6.992;2023-07-31T08:21:15;11107.84;;;-144.33;100.00
19843;BME280;10082;51.038;6.992;2023-07-31T08:23:44;11675.03;;;-144.33;100.00
19843;BME280;10082;51.038;6.992;2023-07-31T08:26:15;12022.44;;;-144.33;100.00
19843;BME280;10082;51.038;6.992;2023-07-31T08:28:46;12006.75;;;-144.33;100.00
19843;BME280;10082;51.038;6.992;2023-07-31T08:31:13;12040.12;;;-144.33;100.00
19843;BME280;10082;51.038;6.992;2023-07-31T08:33:41;12089.19;;;-144.33;100.00
19843;BME280;10082;51.038;6.992;2023-07-31T08:36:10;12177.53;;;-144.33;100.00
19843;BME280;10082;51.038;6.992;2023-07-31T08:38:37;11700.53;;;-144.33;100.00
19843;BME280;10082;51.038;6.992;2023-07-31T08:41:06;11217.72;;;-144.33;100.00
19843;BME280;10082;51.038;6.992;2023-07-31T08:43:35;11557.25;;;-144.33;100.00
19843;BME280;10082;51.038;6.992;2023-07-31T08:46:03;11233.44;;;-144.33;100.00
19843;BME280;10082;51.038;6.992;2023-07-31T08:48:31;11078.41;;;-144.33;100.00
19843;BME280;10082;51.038;6.992;2023-07-31T08:50:59;11414.00;;;-144.33;100.00
19843;BME280;10082;51.038;6.992;2023-07-31T08:53:26;11675.03;;;-144.33;100.00
19843;BME280;10082;51.038;6.992;2023-07-31T08:55:54;11425.75;;;-144.33;100.00
19843;BME280;10082;51.038;6.992;2023-07-31T08:58:27;11531.75;;;-144.33;100.00
19843;BME280;10082;51.038;6.992;2023-07-31T09:00:57;11164.75;;;-144.33;100.00
19843;BME280;10082;51.038;6.992;2023-07-31T09:03:25;12028.34;;;-144.33;100.00
19843;BME280;10082;51.038;6.992;2023-07-31T09:05:53;11184.38;;;-144.33;100.00
19843;BME280;10082;51.038;6.992;2023-07-31T09:08:22;10866.47;;;-144.33;100.00
19843;BME280;10082;51.038;6.992;2023-07-31T09:10:49;10052.19;;;-144.33;100.00
19843;BME280;10082;51.038;6.992;2023-07-31T09:13:17;9493.06;;;-144.33;100.00
19843;BME280;10082;51.038;6.992;2023-07-31T09:15:46;9092.91;;;-144.33;100.00
19843;BME280;10082;51.038;6.992;2023-07-31T09:18:13;10058.06;;;-144.33;100.00
19843;BME280;10082;51.038;6.992;2023-07-31T09:20:44;9750.06;;;-144.33;100.00
19843;BME280;10082;51.038;6.992;2023-07-31T09:23:12;10126.72;;;-144.33;100.00
19843;BME280;10082;51.038;6.992;2023-07-31T09:25:43;10727.13;;;-144.33;100.00
19843;BME280;10082;51.038;6.992;2023-07-31T09:28:12;10160.09;;;-144.33;100.00
19843;BME280;10082;51.038;6.992;2023-07-31T09:30:49;9889.34;;;-144.33;100.00
19843;BME280;10082;51.038;6.992;2023-07-31T09:33:18;10126.72;;;-144.33;100.00
19843;BME280;10082;51.038;6.992;2023-07-31T09:35:47;9775.56;;;-144.33;100.00
19843;BME280;10082;51.038;6.992;2023-07-31T09:38:16;8735.94;;;-144.33;100.00
19843;BME280;10082;51.038;6.992;2023-07-31T09:40:45;9249.84;;;-144.33;100.00
19843;BME280;10082;51.038;6.992;2023-07-31T09:43:13;7784.84;;;-144.33;100.00
19843;BME280;10082;51.038;6.992;2023-07-31T09:45:44;6373.34;;;-144.33;100.00
19843;BME280;10082;51.038;6.992;2023-07-31T09:48:15;5201.41;;;-144.33;100.00
19843;BME280;10082;51.038;6.992;2023-07-31T09:50:44;4063.13;;;-144.33;100.00
19843;BME280;10082;51.038;6.992;2023-07-31T09:53:11;5209.25;;;-144.33;100.00
19843;BME280;10082;51.038;6.992;2023-07-31T09:55:40;4360.91;;;-144.33;100.00
19843;BME280;10082;51.038;6.992;2023-07-31T09:58:09;3475.50;;;-144.33;100.00
19843;BME280;10082;51.038;6.992;2023-07-31T10:00:36;2952.59;;;-144.33;100.00
19843;BME280;10082;51.038;6.992;2023-07-31T10:03:05;1952.03;;;-144.33;100.00
19843;BME280;10082;51.038;6.992;2023-07-31T10:05:35;714.91;;;-144.33;100.00
19843;BME280;10082;51.038;6.992;2023-07-31T10:08:03;-883.81;;;-144.33;100.00
19843;BME280;10082;51.038;6.992;2023-07-31T10:10:31;-1820.78;;;-144.33;100.00
19843;BME280;10082;51.038;6.992;2023-07-31T10:12:59;-2256.94;;;-144.33;100.00
19843;BME280;10082;51.038;6.992;2023-07-31T10:15:28;-2481.81;;;-144.33;100.00
19843;BME280;10082;51.038;6.992;2023-07-31T10:17:58;-956.19;;;-144.33;100.00
19843;BME280;10082;51.038;6.992;2023-07-31T10:20:26;290.22;;;-144.33;100.00
19843;BME280;10082;51.038;6.992;2023-07-31T10:22:57;957.59;;;-144.33;100.00
19843;BME280;10082;51.038;6.992;2023-07-31T10:25:26;945.84;;;-144.33;100.00
19843;BME280;10082;51.038;6.992;2023-07-31T10:27:54;2559.00;;;-144.33;100.00
19843;BME280;10082;51.038;6.992;2023-07-31T10:30:25;2210.47;;;-144.33;100.00
19843;BME280;10082;51.038;6.992;2023-07-31T10:32:55;2100.84;;;-144.33;100.00
19843;BME280;10082;51.038;6.992;2023-07-31T10:35:25;2169.34;;;-144.33;100.00
19843;BME280;10082;51.038;6.992;2023-07-31T10:37:52;2122.38;;;-144.33;100.00
19843;BME280;10082;51.038;6.992;2023-07-31T10:40:24;1284.47;;;-144.33;100.00
19843;BME280;10082;51.038;6.992;2023-07-31T10:42:53;783.41;;;-144.33;100.00
19843;BME280;10082;51.038;6.992;2023-07-31T10:45:24;-425.97;;;-144.33;100.00
19843;BME280;10082;51.038;6.992;2023-07-31T10:47:58;-2689.09;;;-144.33;100.00
19843;BME280;10082;51.038;6.992;2023-07-31T10:50:28;-3129.06;;;-144.33;100.00
19843;BME280;10082;51.038;6.992;2023-07-31T10:52:58;-2673.47;;;-144.33;100.00
19843;BME280;10082;51.038;6.992;2023-07-31T10:55:30;-3846.56;;;-144.33;100.00
19843;BME280;10082;51.038;6.992;2023-07-31T10:58:05;-3275.69;;;-144.33;100.00
19843;BME280;10082;51.038;6.992;2023-07-31T11:00:33;-3690.19;;;-144.33;100.00
19843;BME280;10082;51.038;6.992;2023-07-31T11:03:05;-3524.00;;;-144.33;100.00
19843;BME280;10082;51.038;6.992;2023-07-31T11:05:46;-4229.69;;;-144.33;100.00
19843;BME280;10082;51.038;6.992;2023-07-31T11:08:16;-4548.31;;;-144.33;100.00
19843;BME280;10082;51.038;6.992;2023-07-31T11:10:46;-4718.34;;;-144.33;100.00
19843;BME280;10082;51.038;6.992;2023-07-31T11:13:17;-5871.28;;;-144.33;100.00
19843;BME280;10082;51.038;6.992;2023-07-31T11:15:44;-5105.28;;;-144.33;100.00
19843;BME280;10082;51.038;6.992;2023-07-31T11:18:12;-5118.97;;;-144.33;100.00
19843;BME280;10082;51.038;6.992;2023-07-31T11:20:39;-5072.06;;;-144.33;100.00
19843;BME280;10082;51.038;6.992;2023-07-31T11:23:10;-6672.28;;;-144.33;100.00
19843;BME280;10082;51.038;6.992;2023-07-31T11:25:41;-7129.34;;;-144.33;100.00
19843;BME280;10082;51.038;6.992;2023-07-31T11:28:14;-7348.09;;;-144.33;100.00
19843;BME280;10082;51.038;6.992;2023-07-31T11:30:43;-4956.78;;;-144.33;100.00
19843;BME280;10082;51.038;6.992;2023-07-31T11:33:12;-2024.19;;;-144.33;100.00
19843;BME280;10082;51.038;6.992;2023-07-31T11:35:45;687.50;;;-144.33;100.00
19843;BME280;10082;51.038;6.992;2023-07-31T11:38:21;2557.03;;;-144.33;100.00
19843;BME280;10082;51.038;6.992;2023-07-31T11:40:49;3236.56;;;-144.33;100.00
19843;BME280;10082;51.038;6.992;2023-07-31T11:43:22;4247.28;;;-144.33;100.00
19843;BME280;10082;51.038;6.992;2023-07-31T11:45:52;3869.22;;;-144.33;100.00
19843;BME280;10082;51.038;6.992;2023-07-31T11:48:21;3788.91;;;-144.33;100.00
19843;BME280;10082;51.038;6.992;2023-07-31T11:50:50;2533.56;;;-144.33;100.00
19843;BME280;10082;51.038;6.992;2023-07-31T11:53:20;3336.47;;;-144.33;100.00
19843;BME280;10082;51.038;6.992;2023-07-31T11:55:49;4067.06;;;-144.33;100.00
19843;BME280;10082;51.038;6.992;2023-07-31T11:58:17;4911.44;;;-144.33;100.00
19843;BME280;10082;51.038;6.992;2023-07-31T12:00:47;5912.78;;;-144.33;100.00
19843;BME280;10082;51.038;6.992;2023-07-31T12:03:15;5536.50;;;-144.33;100.00
19843;BME280;10082;51.038;6.992;2023-07-31T12:05:43;6438.03;;;-144.33;100.00
19843;BME280;10082;51.038;6.992;2023-07-31T12:08:11;6481.16;;;-144.33;100.00
19843;BME280;10082;51.038;6.992;2023-07-31T12:10:39;6257.72;;;-144.33;100.00
19843;BME280;10082;51.038;6.992;2023-07-31T12:13:09;6138.16;;;-144.33;100.00
19843;BME280;10082;51.038;6.992;2023-07-31T12:15:40;6465.47;;;-144.33;100.00
19843;BME280;10082;51.038;6.992;2023-07-31T12:18:11;7194.72;;;-144.33;100.00
19843;BME280;10082;51.038;6.992;2023-07-31T12:20:43;6945.75;;;-144.33;100.00
19843;BME280;10082;51.038;6.992;2023-07-31T12:23:14;6883.00;;;-144.33;100.00
19843;BME280;10082;51.038;6.992;2023-07-31T12:25:42;7061.41;;;-144.33;100.00
19843;BME280;10082;51.038;6.992;2023-07-31T12:28:09;7135.91;;;-144.33;100.00
19843;BME280;10082;51.038;6.992;2023-07-31T12:30:39;6688.94;;;-144.33;100.00
19843;BME280;10082;51.038;6.992;2023-07-31T12:33:18;6543.88;;;-144.33;100.00
19843;BME280;10082;51.038;6.992;2023-07-31T12:35:47;6594.84;;;-144.33;100.00
19843;BME280;10082;51.038;6.992;2023-07-31T12:38:14;7512.31;;;-144.33;100.00
19843;BME280;10082;51.038;6.992;2023-07-31T12:40:42;7729.97;;;-144.33;100.00
19843;BME280;10082;51.038;6.992;2023-07-31T12:43:09;7135.91;;;-144.33;100.00
19843;BME280;10082;51.038;6.992;2023-07-31T12:45:36;6328.28;;;-144.33;100.00